createdAt,value
2022-09-20T00:01:16.984Z,101375.63
2022-09-20T00:03:47.042Z,101376.50
2022-09-20T00:06:16.939Z,101380.06
2022-09-20T00:08:45.438Z,101372.94
2022-09-20T00:11:17.628Z,101380.03
2022-09-20T00:13:47.427Z,101382.66
2022-09-20T00:16:17.283Z,101384.44
2022-09-20T00:18:48.741Z,101382.69
2022-09-20T00:21:17.713Z,101380.06
2022-09-20T00:23:46.424Z,101387.19
2022-09-20T00:26:16.229Z,101388.06
2022-09-20T00:28:44.705Z,101388.09
2022-09-20T00:31:13.000Z,101390.72
2022-09-20T00:34:12.832Z,101389.88
2022-09-20T00:36:40.780Z,101390.78
2022-09-20T00:39:11.582Z,101385.44
2022-09-20T00:41:41.057Z,101389.91
2022-09-20T00:44:42.487Z,101397.88
2022-09-20T00:47:17.628Z,101393.50
2022-09-20T00:49:45.740Z,101393.50
2022-09-20T00:52:14.124Z,101390.88
2022-09-20T00:54:42.437Z,101392.66
2022-09-20T00:57:12.168Z,101394.47
2022-09-20T00:59:44.536Z,101397.13
2022-09-20T01:02:18.495Z,101395.34
2022-09-20T01:04:49.358Z,101395.31
2022-09-20T01:07:23.054Z,101394.47
2022-09-20T01:09:51.978Z,101392.66
2022-09-20T01:12:24.518Z,101398.88
2022-09-20T01:14:53.676Z,101412.19
2022-09-20T01:17:26.240Z,101407.78
2022-09-20T01:20:08.990Z,101398.00
2022-09-20T01:22:48.979Z,101410.41
2022-09-20T01:25:22.894Z,101404.25
2022-09-20T01:27:53.549Z,101406.00
2022-09-20T01:30:24.858Z,101408.69
2022-09-20T01:33:14.862Z,101406.91
2022-09-20T01:35:46.391Z,101403.44
2022-09-20T01:38:25.900Z,101411.47
2022-09-20T01:41:04.127Z,101412.34
2022-09-20T01:43:37.439Z,101406.22
2022-09-20T01:46:19.714Z,101415.06
2022-09-20T01:48:51.064Z,101412.38
2022-09-20T01:51:56.947Z,101410.69
2022-09-20T01:54:57.920Z,101417.81
2022-09-20T01:57:52.648Z,101414.31
2022-09-20T02:00:24.854Z,101421.38
2022-09-20T02:03:41.134Z,101427.66
2022-09-20T02:06:21.620Z,101428.53
2022-09-20T02:09:26.916Z,101418.72
2022-09-20T02:12:17.298Z,101424.09
2022-09-20T02:14:56.820Z,101432.97
2022-09-20T02:17:33.779Z,101428.59
2022-09-20T02:20:17.035Z,101434.84
2022-09-20T02:23:12.775Z,101440.16
2022-09-20T02:25:54.340Z,101430.44
2022-09-20T02:28:32.441Z,101430.47
2022-09-20T02:31:15.593Z,101432.28
2022-09-20T02:34:01.385Z,101433.16
2022-09-20T02:36:42.816Z,101442.97
2022-09-20T02:39:16.271Z,101435.03
2022-09-20T02:41:58.080Z,101443.91
2022-09-20T02:44:48.103Z,101446.59
2022-09-20T02:47:26.320Z,101443.03
2022-09-20T02:50:06.381Z,101447.47
2022-09-20T02:52:45.784Z,101453.69
2022-09-20T02:55:18.974Z,101454.59
2022-09-20T02:57:56.699Z,101453.72
2022-09-20T03:00:28.641Z,101459.03
2022-09-20T03:03:09.718Z,101463.44
2022-09-20T03:05:52.476Z,101462.59
2022-09-20T03:08:35.968Z,101472.34
2022-09-20T03:11:14.386Z,101474.09
2022-09-20T03:13:55.522Z,101479.44
2022-09-20T03:16:36.677Z,101471.47
2022-09-20T03:19:16.433Z,101477.66
2022-09-20T03:22:00.969Z,101474.16
2022-09-20T03:24:40.923Z,101472.41
2022-09-20T03:27:17.764Z,101475.94
2022-09-20T03:30:00.014Z,101483.00
2022-09-20T03:32:44.520Z,101482.09
2022-09-20T03:35:25.016Z,101486.53
2022-09-20T03:38:10.903Z,101491.03
2022-09-20T03:41:29.680Z,101487.47
2022-09-20T03:44:25.155Z,101491.00
2022-09-20T03:47:07.478Z,101493.66
2022-09-20T03:50:04.645Z,101490.97
2022-09-20T03:52:51.290Z,101484.84
2022-09-20T03:55:55.855Z,101491.03
2022-09-20T03:58:35.896Z,101492.81
2022-09-20T04:01:25.049Z,101496.31
2022-09-20T04:03:57.145Z,101502.53
2022-09-20T04:06:44.554Z,101494.56
2022-09-20T04:09:45.526Z,101500.81
2022-09-20T04:12:24.303Z,101505.19
2022-09-20T04:15:00.149Z,101501.69
2022-09-20T04:17:42.917Z,101501.66
2022-09-20T04:20:21.317Z,101504.34
2022-09-20T04:22:52.758Z,101503.44
2022-09-20T04:25:24.759Z,101505.25
2022-09-20T04:27:59.662Z,101492.91
2022-09-20T04:30:31.154Z,101500.84
2022-09-20T04:33:03.180Z,101505.28
2022-09-20T04:35:58.713Z,101499.13
2022-09-20T04:38:28.338Z,101503.50
2022-09-20T04:41:34.625Z,101511.44
2022-09-20T04:44:35.182Z,101507.06
2022-09-20T04:47:38.777Z,101510.59
2022-09-20T04:50:40.620Z,101514.13
2022-09-20T04:53:44.798Z,101520.31
2022-09-20T04:56:21.928Z,101528.25
2022-09-20T04:59:00.794Z,101527.38
2022-09-20T05:02:07.282Z,101529.13
2022-09-20T05:05:14.453Z,101523.81
2022-09-20T05:08:10.400Z,101524.69
2022-09-20T05:11:10.696Z,101532.66
2022-09-20T05:13:57.049Z,101535.38
2022-09-20T05:16:50.165Z,101541.56
2022-09-20T05:19:32.685Z,101558.34
2022-09-20T05:22:25.597Z,101556.59
2022-09-20T05:25:17.108Z,101566.31
2022-09-20T05:27:51.555Z,101569.84
2022-09-20T05:30:28.345Z,101568.97
2022-09-20T05:33:06.025Z,101572.50
2022-09-20T05:35:40.855Z,101572.47
2022-09-20T05:38:19.911Z,101569.81
2022-09-20T05:41:04.468Z,101561.88
2022-09-20T05:43:34.818Z,101569.81
2022-09-20T05:46:17.941Z,101578.66
2022-09-20T05:48:56.424Z,101576.88
2022-09-20T05:51:48.753Z,101571.53
2022-09-20T05:54:29.580Z,101582.13
2022-09-20T05:57:12.602Z,101581.25
2022-09-20T05:59:54.582Z,101590.97
2022-09-20T06:02:33.867Z,101590.06
2022-09-20T06:05:09.845Z,101582.06
2022-09-20T06:07:51.772Z,101591.78
2022-09-20T06:10:39.684Z,101587.34
2022-09-20T06:13:24.446Z,101589.06
2022-09-20T06:16:00.443Z,101582.88
2022-09-20T06:18:33.403Z,101596.09
2022-09-20T06:21:15.377Z,101596.97
2022-09-20T06:23:44.973Z,101592.53
2022-09-20T06:26:18.889Z,101596.06
2022-09-20T06:28:50.236Z,101600.47
2022-09-20T06:31:18.575Z,101600.47
2022-09-20T06:33:57.431Z,101606.66
2022-09-20T06:36:48.608Z,101606.59
2022-09-20T06:39:46.024Z,101597.72
2022-09-20T06:42:14.054Z,101610.06
2022-09-20T06:44:43.219Z,101607.41
2022-09-20T06:47:12.114Z,101610.84
2022-09-20T06:49:42.408Z,101610.81
2022-09-20T06:52:15.575Z,101612.56
2022-09-20T06:54:46.697Z,101617.84
2022-09-20T06:57:17.497Z,101615.13
2022-09-20T06:59:45.616Z,101616.00
2022-09-20T07:02:13.759Z,101616.81
2022-09-20T07:04:41.922Z,101620.31
2022-09-20T07:07:17.886Z,101622.91
2022-09-20T07:09:47.516Z,101621.13
2022-09-20T07:12:15.505Z,101632.56
2022-09-20T07:14:44.319Z,101634.25
2022-09-20T07:17:13.220Z,101628.88
2022-09-20T07:19:41.145Z,101639.44
2022-09-20T07:22:09.422Z,101643.81
2022-09-20T07:24:37.410Z,101641.16
2022-09-20T07:27:07.202Z,101648.22
2022-09-20T07:29:36.200Z,101645.50
2022-09-20T07:32:04.497Z,101648.09
2022-09-20T07:34:32.575Z,101649.81
2022-09-20T07:37:00.736Z,101647.97
2022-09-20T07:39:28.776Z,101653.19
2022-09-20T07:41:56.958Z,101656.66
2022-09-20T07:44:27.771Z,101660.16
2022-09-20T07:46:58.326Z,101654.75
2022-09-20T07:49:27.607Z,101657.34
2022-09-20T07:51:55.698Z,101660.84
2022-09-20T07:54:23.677Z,101661.69
2022-09-20T07:56:51.715Z,101667.84
2022-09-20T07:59:19.744Z,101661.44
2022-09-20T08:01:49.553Z,101664.97
2022-09-20T08:04:17.565Z,101663.97
2022-09-20T08:06:46.573Z,101673.78
2022-09-20T08:09:15.409Z,101679.00
2022-09-20T08:11:45.333Z,101675.34
2022-09-20T08:14:15.988Z,101677.88
2022-09-20T08:16:45.585Z,101681.44
2022-09-20T08:19:18.057Z,101686.69
2022-09-20T08:21:46.204Z,101686.66
2022-09-20T08:24:16.359Z,101682.00
2022-09-20T08:26:44.905Z,101686.31
2022-09-20T08:29:14.960Z,101670.22
2022-09-20T08:31:43.545Z,101684.31
2022-09-20T08:34:15.004Z,101688.59
2022-09-20T08:36:46.954Z,101689.28
2022-09-20T08:42:14.163Z,101691.00
2022-09-20T08:44:57.903Z,101695.50
2022-09-20T08:47:29.719Z,101695.28
2022-09-20T08:50:00.756Z,101696.94
2022-09-20T08:52:39.664Z,101700.34
2022-09-20T08:55:16.894Z,101697.59
2022-09-20T08:57:50.050Z,101709.19
2022-09-20T09:00:22.980Z,101701.88
2022-09-20T09:02:53.040Z,101701.84
2022-09-20T09:05:32.745Z,101709.81
2022-09-20T09:08:07.168Z,101707.91
2022-09-20T09:10:46.357Z,101706.94
2022-09-20T09:13:27.600Z,101691.56
2022-09-20T09:15:59.804Z,101696.69
2022-09-20T09:18:38.798Z,101691.28
2022-09-20T09:21:10.386Z,101686.06
2022-09-20T09:23:42.684Z,101701.00
2022-09-20T09:26:20.480Z,101698.97
2022-09-20T09:28:49.404Z,101695.31
2022-09-20T09:31:25.770Z,101711.94
2022-09-20T09:33:53.949Z,101715.09
2022-09-20T09:36:25.672Z,101713.28
2022-09-20T09:39:16.474Z,101714.88
2022-09-20T09:41:46.262Z,101710.31
2022-09-20T09:44:23.086Z,101714.56
2022-09-20T09:46:51.539Z,101715.09
2022-09-20T09:49:21.636Z,101710.50
2022-09-20T09:52:05.044Z,101710.44
2022-09-20T09:54:37.500Z,101716.84
2022-09-20T09:57:31.892Z,101718.31
2022-09-20T10:00:18.406Z,101712.19
2022-09-20T10:03:27.191Z,101711.06
2022-09-20T10:06:08.533Z,101713.91
2022-09-20T10:08:46.953Z,101720.13
2022-09-20T10:11:31.818Z,101697.09
2022-09-20T10:14:08.749Z,101716.53
2022-09-20T10:16:53.046Z,101719.22
2022-09-20T10:19:33.462Z,101715.84
2022-09-20T10:22:12.545Z,101723.28
2022-09-20T10:24:51.519Z,101723.53
2022-09-20T10:27:34.081Z,101718.00
2022-09-20T10:30:09.358Z,101718.00
2022-09-20T10:35:26.355Z,101706.50
2022-09-20T10:38:14.550Z,101720.44
2022-09-20T10:41:12.482Z,101703.81
2022-09-20T10:43:59.271Z,101718.16
2022-09-20T10:46:38.098Z,101709.78
2022-09-20T10:49:19.259Z,101712.19
2022-09-20T10:52:00.768Z,101722.53
2022-09-20T10:54:43.196Z,101729.59
2022-09-20T10:57:27.122Z,101716.25
2022-09-20T11:00:21.019Z,101711.38
2022-09-20T11:03:01.047Z,101717.97
2022-09-20T11:05:43.412Z,101715.19
2022-09-20T11:08:14.140Z,101724.66
2022-09-20T11:10:46.702Z,101725.69
2022-09-20T11:13:25.044Z,101726.56
2022-09-20T11:16:00.886Z,101726.44
2022-09-20T11:18:35.687Z,101728.94
2022-09-20T11:21:09.513Z,101719.66
2022-09-20T11:23:46.403Z,101716.00
2022-09-20T11:26:19.972Z,101722.53
2022-09-20T11:28:52.200Z,101719.03
2022-09-20T11:31:31.317Z,101729.22
2022-09-20T11:34:04.502Z,101732.34
2022-09-20T11:36:39.469Z,101734.94
2022-09-20T11:39:16.033Z,101724.97
2022-09-20T11:41:44.791Z,101732.97
2022-09-20T11:44:17.449Z,101723.72
2022-09-20T11:46:52.957Z,101720.00
2022-09-20T11:49:24.878Z,101722.09
2022-09-20T11:52:14.185Z,101725.63
2022-09-20T11:54:56.288Z,101737.25
2022-09-20T11:57:25.383Z,101731.97
2022-09-20T11:59:57.197Z,101734.03
2022-09-20T12:02:36.487Z,101737.78
2022-09-20T12:05:06.274Z,101739.97
2022-09-20T12:07:38.143Z,101736.94
2022-09-20T12:10:09.391Z,101734.72
2022-09-20T12:12:41.637Z,101734.72
2022-09-20T12:15:25.920Z,101741.81
2022-09-20T12:18:22.289Z,101739.28
2022-09-20T12:21:15.248Z,101738.25
2022-09-20T12:24:19.230Z,101731.31
2022-09-20T12:26:57.303Z,101728.16
2022-09-20T12:30:09.708Z,101731.25
2022-09-20T12:32:57.386Z,101731.38
2022-09-20T12:36:14.187Z,101736.75
2022-09-20T12:39:00.103Z,101732.03
2022-09-20T12:41:29.347Z,101735.56
2022-09-20T12:44:04.437Z,101737.78
2022-09-20T12:46:41.235Z,101720.28
2022-09-20T12:49:52.499Z,101727.97
2022-09-20T12:52:57.533Z,101730.22
2022-09-20T12:55:45.471Z,101729.38
2022-09-20T12:58:24.300Z,101725.88
2022-09-20T13:01:32.256Z,101723.50
2022-09-20T13:04:55.315Z,101723.66
2022-09-20T13:07:34.922Z,101718.28
2022-09-20T13:10:15.833Z,101718.84
2022-09-20T13:12:50.387Z,101722.59
2022-09-20T13:15:22.673Z,101715.94
2022-09-20T13:17:54.457Z,101718.59
2022-09-20T13:20:26.130Z,101723.00
2022-09-20T13:22:59.532Z,101724.66
2022-09-20T13:25:29.504Z,101725.84
2022-09-20T13:28:08.229Z,101727.75
2022-09-20T13:30:36.653Z,101744.13
2022-09-20T13:33:17.301Z,101725.19
2022-09-20T13:35:48.429Z,101739.91
2022-09-20T13:38:22.351Z,101730.69
2022-09-20T13:40:51.580Z,101736.72
2022-09-20T13:43:28.246Z,101734.75
2022-09-20T13:45:58.684Z,101746.22
2022-09-20T13:48:28.404Z,101716.94
2022-09-20T13:50:57.068Z,101748.13
2022-09-20T13:53:42.769Z,101742.59
2022-09-20T13:56:15.177Z,101732.06
2022-09-20T13:58:44.592Z,101731.44
2022-09-20T14:01:28.875Z,101733.81
2022-09-20T14:04:06.951Z,101731.78
2022-09-20T14:06:35.977Z,101723.78
2022-09-20T14:09:11.065Z,101728.16
2022-09-20T14:11:40.946Z,101725.44
2022-09-20T14:14:12.366Z,101729.88
2022-09-20T14:16:44.993Z,101733.53
2022-09-20T14:19:16.263Z,101730.63
2022-09-20T14:21:44.980Z,101726.59
2022-09-20T14:24:30.091Z,101739.69
2022-09-20T14:27:07.784Z,101733.34
2022-09-20T14:29:42.197Z,101739.75
2022-09-20T14:32:24.305Z,101735.09
2022-09-20T14:35:01.400Z,101735.97
2022-09-20T14:37:32.011Z,101739.38
2022-09-20T14:40:02.324Z,101730.19
2022-09-20T14:42:34.945Z,101738.28
2022-09-20T14:45:06.319Z,101742.25
2022-09-20T14:47:40.056Z,101733.91
2022-09-20T14:50:25.422Z,101732.53
2022-09-20T14:53:37.107Z,101744.13
2022-09-20T14:56:12.593Z,101742.16
2022-09-20T14:59:19.848Z,101730.47
2022-09-20T15:01:58.323Z,101738.78
2022-09-20T15:04:28.648Z,101736.38
2022-09-20T15:06:57.930Z,101740.91
2022-09-20T15:09:25.899Z,101742.63
2022-09-20T15:12:01.633Z,101742.03
2022-09-20T15:14:31.840Z,101742.63
2022-09-20T15:17:06.218Z,101747.00
2022-09-20T15:19:34.395Z,101741.84
2022-09-20T15:22:02.473Z,101753.63
2022-09-20T15:24:30.453Z,101755.19
2022-09-20T15:26:58.423Z,101755.44
2022-09-20T15:29:27.177Z,101754.47
2022-09-20T15:31:55.297Z,101752.56
2022-09-20T15:34:24.838Z,101746.75
2022-09-20T15:36:54.152Z,101763.81
2022-09-20T15:39:22.328Z,101761.41
2022-09-20T15:41:53.043Z,101737.88
2022-09-20T15:44:21.212Z,101762.69
2022-09-20T15:46:51.381Z,101764.25
2022-09-20T15:49:20.727Z,101770.88
2022-09-20T15:51:50.453Z,101766.19
2022-09-20T15:54:18.442Z,101768.25
2022-09-20T15:56:46.379Z,101762.31
2022-09-20T15:59:16.045Z,101769.97
2022-09-20T16:01:47.831Z,101773.47
2022-09-20T16:04:18.578Z,101768.41
2022-09-20T16:06:49.477Z,101771.16
2022-09-20T16:09:19.269Z,101777.53
2022-09-20T16:11:48.113Z,101775.31
2022-09-20T16:14:16.370Z,101785.59
2022-09-20T16:16:44.353Z,101785.72
2022-09-20T16:19:20.902Z,101791.06
2022-09-20T16:21:55.091Z,101785.75
2022-09-20T16:24:28.012Z,101792.41
2022-09-20T16:26:56.305Z,101784.63
2022-09-20T16:29:25.717Z,101795.53
2022-09-20T16:31:55.085Z,101798.72
2022-09-20T16:34:29.611Z,101799.13
2022-09-20T16:36:59.663Z,101803.53
2022-09-20T16:39:30.577Z,101799.75
2022-09-20T16:42:03.470Z,101796.91
2022-09-20T16:44:31.823Z,101810.34
2022-09-20T16:46:59.927Z,101813.94
2022-09-20T16:49:29.525Z,101819.03
2022-09-20T16:51:57.593Z,101825.56
2022-09-20T16:54:29.679Z,101823.25
2022-09-20T16:57:01.532Z,101823.69
2022-09-20T16:59:29.700Z,101829.34
2022-09-20T17:01:58.008Z,101833.06
2022-09-20T17:04:26.020Z,101827.16
2022-09-20T17:06:54.292Z,101830.97
2022-09-20T17:09:22.269Z,101841.13
2022-09-20T17:11:51.430Z,101837.03
2022-09-20T17:14:21.888Z,101836.47
2022-09-20T17:16:50.513Z,101837.78
2022-09-20T17:19:20.532Z,101855.06
2022-09-20T17:21:51.192Z,101846.44
2022-09-20T17:24:20.560Z,101857.59
2022-09-20T17:26:50.267Z,101863.56
2022-09-20T17:29:21.175Z,101848.31
2022-09-20T17:31:55.062Z,101871.84
2022-09-20T17:34:25.386Z,101861.72
2022-09-20T17:36:54.911Z,101870.13
2022-09-20T17:39:22.893Z,101871.38
2022-09-20T17:41:51.849Z,101876.19
2022-09-20T17:44:21.256Z,101874.69
2022-09-20T17:46:50.659Z,101883.03
2022-09-20T17:49:20.455Z,101896.81
2022-09-20T17:51:50.121Z,101885.31
2022-09-20T17:54:19.168Z,101888.28
2022-09-20T17:56:49.423Z,101894.75
2022-09-20T17:59:18.939Z,101903.00
2022-09-20T18:01:50.415Z,101905.00
2022-09-20T18:04:20.705Z,101895.34
2022-09-20T18:06:50.157Z,101913.16
2022-09-20T18:09:20.282Z,101917.63
2022-09-20T18:11:49.997Z,101910.59
2022-09-20T18:14:20.035Z,101917.78
2022-09-20T18:16:52.950Z,101910.88
2022-09-20T18:19:22.620Z,101920.66
2022-09-20T18:21:51.052Z,101917.19
2022-09-20T18:24:19.049Z,101927.97
2022-09-20T18:26:46.992Z,101928.09
2022-09-20T18:29:17.864Z,101930.94
2022-09-20T18:31:49.704Z,101931.94
2022-09-20T18:34:19.321Z,101933.84
2022-09-20T18:36:51.544Z,101932.97
2022-09-20T18:39:21.155Z,101941.03
2022-09-20T18:41:50.444Z,101946.34
2022-09-20T18:44:19.254Z,101948.13
2022-09-20T18:46:49.304Z,101947.22
2022-09-20T18:49:17.554Z,101957.00
2022-09-20T18:51:47.178Z,101957.91
2022-09-20T18:54:15.654Z,101952.72
2022-09-20T18:56:45.025Z,101963.34
2022-09-20T18:59:16.539Z,101966.03
2022-09-20T19:01:56.294Z,101971.34
2022-09-20T19:04:33.198Z,101978.53
2022-09-20T19:07:12.948Z,101976.78
2022-09-20T19:09:47.119Z,101977.72
2022-09-20T19:12:21.937Z,101983.06
2022-09-20T19:15:05.134Z,101992.00
2022-09-20T19:17:52.959Z,101989.34
2022-09-20T19:20:29.009Z,101977.75
2022-09-20T19:23:11.376Z,101980.50
2022-09-20T19:25:44.093Z,101986.63
2022-09-20T19:28:14.182Z,101993.84
2022-09-20T19:30:43.225Z,101997.50
2022-09-20T19:33:19.308Z,101992.22
2022-09-20T19:35:51.059Z,102003.84
2022-09-20T19:38:36.954Z,102005.78
2022-09-20T19:41:20.120Z,102006.78
2022-09-20T19:44:02.269Z,102010.44
2022-09-20T19:46:43.846Z,102007.84
2022-09-20T19:49:16.258Z,102010.50
2022-09-20T19:51:45.541Z,102014.97
2022-09-20T19:54:15.141Z,102021.22
2022-09-20T19:56:53.754Z,102015.94
2022-09-20T19:59:23.236Z,102022.19
2022-09-20T20:01:52.530Z,102026.66
2022-09-20T20:04:22.797Z,102025.78
2022-09-20T20:07:00.756Z,102021.38
2022-09-20T20:09:39.498Z,102018.72
2022-09-20T20:12:14.624Z,102023.25
2022-09-20T20:14:55.616Z,102027.66
2022-09-20T20:17:45.150Z,102032.16
2022-09-20T20:20:23.450Z,102039.25
2022-09-20T20:23:23.281Z,102034.88
2022-09-20T20:26:00.058Z,102044.66
2022-09-20T20:28:28.046Z,102043.84
2022-09-20T20:30:59.772Z,102040.25
2022-09-20T20:33:28.125Z,102043.81
2022-09-20T20:35:59.498Z,102036.69
2022-09-20T20:38:28.517Z,102053.56
2022-09-20T20:41:04.395Z,102051.84
2022-09-20T20:43:32.894Z,102050.09
2022-09-20T20:46:00.884Z,102056.28
2022-09-20T20:48:28.878Z,102058.06
2022-09-20T20:51:07.941Z,102056.31
2022-09-20T20:53:38.367Z,102067.84
2022-09-20T20:56:08.676Z,102067.84
2022-09-20T20:58:37.899Z,102070.53
2022-09-20T21:01:10.685Z,102072.28
2022-09-20T21:03:38.908Z,102078.53
2022-09-20T21:06:09.548Z,102075.88
2022-09-20T21:08:39.744Z,102074.97
2022-09-20T21:11:09.627Z,102073.25
2022-09-20T21:13:37.875Z,102081.19
2022-09-20T21:16:07.882Z,102076.78
2022-09-20T21:18:36.838Z,102081.28
2022-09-20T21:21:05.973Z,102077.72
2022-09-20T21:23:37.054Z,102079.50
2022-09-20T21:26:08.978Z,102078.63
2022-09-20T21:28:38.156Z,102080.41
2022-09-20T21:31:07.143Z,102076.00
2022-09-20T21:33:36.380Z,102080.44
2022-09-20T21:36:05.642Z,102078.63
2022-09-20T21:38:34.921Z,102076.00
2022-09-20T21:41:05.011Z,102082.19
2022-09-20T21:43:33.608Z,102073.31
2022-09-20T21:46:01.760Z,102084.84
2022-09-20T21:48:30.344Z,102080.44
2022-09-20T21:51:03.162Z,102082.22
2022-09-20T21:53:31.119Z,102085.75
2022-09-20T21:56:02.007Z,102085.75
2022-09-20T21:58:30.392Z,102091.06
2022-09-20T22:01:00.782Z,102084.84
2022-09-20T22:03:34.059Z,102096.38
2022-09-20T22:06:06.568Z,102099.03
2022-09-20T22:08:34.559Z,102088.41
2022-09-20T22:11:04.263Z,102093.72
2022-09-20T22:13:32.278Z,102097.25
2022-09-20T22:16:08.349Z,102099.94
2022-09-20T22:18:38.531Z,102095.50
2022-09-20T22:21:09.081Z,102101.72
2022-09-20T22:23:37.370Z,102098.16
2022-09-20T22:26:08.864Z,102092.81
2022-09-20T22:28:37.169Z,102096.38
2022-09-20T22:31:06.949Z,102099.91
2022-09-20T22:33:35.545Z,102100.81
2022-09-20T22:36:04.135Z,102095.50
2022-09-20T22:38:32.413Z,102099.91
2022-09-20T22:41:00.771Z,102102.56
2022-09-20T22:43:30.121Z,102099.91
2022-09-20T22:46:03.366Z,102102.56
2022-09-20T22:48:31.930Z,102103.44
2022-09-20T22:51:00.974Z,102100.78
2022-09-20T22:53:29.965Z,102100.78
2022-09-20T22:56:05.970Z,102105.22
2022-09-20T22:58:36.924Z,102106.09
2022-09-20T23:01:10.530Z,102104.31
2022-09-20T23:03:39.526Z,102114.94
2022-09-20T23:06:15.349Z,102114.06
2022-09-20T23:08:43.776Z,102111.41
2022-09-20T23:11:12.014Z,102112.31
2022-09-20T23:13:41.386Z,102116.72
2022-09-20T23:16:14.190Z,102114.06
2022-09-20T23:18:42.460Z,102117.63
2022-09-20T23:21:10.409Z,102121.16
2022-09-20T23:23:38.769Z,102127.34
2022-09-20T23:26:08.621Z,102130.00
2022-09-20T23:28:37.093Z,102129.09
2022-09-20T23:31:08.549Z,102131.75
2022-09-20T23:33:36.878Z,102131.75
2022-09-20T23:36:07.605Z,102130.81
2022-09-20T23:38:35.625Z,102133.47
2022-09-20T23:41:04.693Z,102133.47
2022-09-20T23:43:33.355Z,102137.00
2022-09-20T23:46:01.623Z,102131.69
2022-09-20T23:48:31.333Z,102129.09
2022-09-20T23:50:59.701Z,102142.38
2022-09-20T23:53:27.632Z,102135.28
2022-09-20T23:55:55.770Z,102140.59
2022-09-20T23:58:23.984Z,102143.19
